sensor_id;sensor_type;location;lat;lon;timestamp;P1;durP1;ratioP1;P2;durP2;ratioP2
12844;SDS011;68700;48.534;9.196;2023-08-31T00:00:55;3.87;;;3.47;;
12844;SDS011;68700;48.534;9.196;2023-08-31T00:04:16;3.90;;;3.23;;
12844;SDS011;68700;48.534;9.196;2023-08-31T00:07:38;3.93;;;3.20;;
12844;SDS011;68700;48.534;9.196;2023-08-31T00:11:01;4.07;;;3.20;;
12844;SDS011;68700;48.534;9.196;2023-08-31T00:14:23;4.23;;;3.37;;
12844;SDS011;68700;48.534;9.196;2023-08-31T00:17:48;5.33;;;3.73;;
12844;SDS011;68700;48.534;9.196;2023-08-31T00:21:11;3.40;;;3.10;;
12844;SDS011;68700;48.534;9.196;2023-08-31T00:24:33;4.13;;;3.73;;
12844;SDS011;68700;48.534;9.196;2023-08-31T00:27:56;5.30;;;3.40;;
12844;SDS011;68700;48.534;9.196;2023-08-31T00:31:24;6.13;;;3.77;;
12844;SDS011;68700;48.534;9.196;2023-08-31T00:34:49;4.77;;;3.13;;
12844;SDS011;68700;48.534;9.196;2023-08-31T00:38:11;3.50;;;3.20;;
12844;SDS011;68700;48.534;9.196;2023-08-31T00:41:33;3.53;;;3.17;;
12844;SDS011;68700;48.534;9.196;2023-08-31T00:44:55;5.17;;;3.30;;
12844;SDS011;68700;48.534;9.196;2023-08-31T00:48:17;6.83;;;3.00;;
12844;SDS011;68700;48.534;9.196;2023-08-31T00:51:40;5.10;;;3.20;;
12844;SDS011;68700;48.534;9.196;2023-08-31T00:55:08;4.20;;;3.17;;
12844;SDS011;68700;48.534;9.196;2023-08-31T00:58:31;4.77;;;3.30;;
12844;SDS011;68700;48.534;9.196;2023-08-31T01:02:03;3.57;;;3.27;;
12844;SDS011;68700;48.534;9.196;2023-08-31T01:05:32;5.47;;;3.53;;
12844;SDS011;68700;48.534;9.196;2023-08-31T01:09:02;4.30;;;3.67;;
12844;SDS011;68700;48.534;9.196;2023-08-31T01:12:33;4.23;;;3.50;;
12844;SDS011;68700;48.534;9.196;2023-08-31T01:16:03;4.83;;;3.63;;
12844;SDS011;68700;48.534;9.196;2023-08-31T01:19:31;4.77;;;3.77;;
12844;SDS011;68700;48.534;9.196;2023-08-31T01:23:06;4.97;;;3.27;;
12844;SDS011;68700;48.534;9.196;2023-08-31T01:26:34;3.93;;;3.53;;
12844;SDS011;68700;48.534;9.196;2023-08-31T01:29:56;5.17;;;3.27;;
12844;SDS011;68700;48.534;9.196;2023-08-31T01:33:18;5.17;;;3.47;;
12844;SDS011;68700;48.534;9.196;2023-08-31T01:36:41;3.47;;;2.97;;
12844;SDS011;68700;48.534;9.196;2023-08-31T01:40:08;5.00;;;2.73;;
12844;SDS011;68700;48.534;9.196;2023-08-31T01:43:38;3.63;;;2.60;;
12844;SDS011;68700;48.534;9.196;2023-08-31T01:47:02;4.17;;;2.70;;
12844;SDS011;68700;48.534;9.196;2023-08-31T01:50:26;4.27;;;2.87;;
12844;SDS011;68700;48.534;9.196;2023-08-31T01:53:48;4.40;;;2.90;;
12844;SDS011;68700;48.534;9.196;2023-08-31T01:57:10;3.07;;;2.77;;
12844;SDS011;68700;48.534;9.196;2023-08-31T02:00:33;2.67;;;2.47;;
12844;SDS011;68700;48.534;9.196;2023-08-31T02:03:55;3.23;;;2.73;;
12844;SDS011;68700;48.534;9.196;2023-08-31T02:07:17;3.53;;;2.70;;
12844;SDS011;68700;48.534;9.196;2023-08-31T02:10:39;3.53;;;2.73;;
12844;SDS011;68700;48.534;9.196;2023-08-31T02:14:01;4.50;;;2.63;;
12844;SDS011;68700;48.534;9.196;2023-08-31T02:17:25;4.13;;;3.30;;
12844;SDS011;68700;48.534;9.196;2023-08-31T02:20:47;3.10;;;2.80;;
12844;SDS011;68700;48.534;9.196;2023-08-31T02:24:08;3.90;;;3.00;;
12844;SDS011;68700;48.534;9.196;2023-08-31T02:27:30;3.47;;;2.37;;
12844;SDS011;68700;48.534;9.196;2023-08-31T02:30:57;4.33;;;2.53;;
12844;SDS011;68700;48.534;9.196;2023-08-31T02:34:20;4.63;;;2.80;;
12844;SDS011;68700;48.534;9.196;2023-08-31T02:37:42;3.30;;;3.00;;
12844;SDS011;68700;48.534;9.196;2023-08-31T02:41:04;6.97;;;2.80;;
12844;SDS011;68700;48.534;9.196;2023-08-31T02:44:26;4.03;;;2.70;;
12844;SDS011;68700;48.534;9.196;2023-08-31T02:47:48;3.33;;;3.03;;
12844;SDS011;68700;48.534;9.196;2023-08-31T02:51:11;4.60;;;2.73;;
12844;SDS011;68700;48.534;9.196;2023-08-31T02:54:33;3.43;;;2.70;;
12844;SDS011;68700;48.534;9.196;2023-08-31T02:57:55;3.90;;;2.87;;
12844;SDS011;68700;48.534;9.196;2023-08-31T03:01:17;4.07;;;2.67;;
12844;SDS011;68700;48.534;9.196;2023-08-31T03:04:39;5.20;;;3.00;;
12844;SDS011;68700;48.534;9.196;2023-08-31T03:08:02;3.50;;;2.90;;
12844;SDS011;68700;48.534;9.196;2023-08-31T03:11:25;3.13;;;2.80;;
12844;SDS011;68700;48.534;9.196;2023-08-31T03:14:47;4.37;;;3.07;;
12844;SDS011;68700;48.534;9.196;2023-08-31T03:18:09;3.77;;;2.80;;
12844;SDS011;68700;48.534;9.196;2023-08-31T03:21:31;5.50;;;3.00;;
12844;SDS011;68700;48.534;9.196;2023-08-31T03:24:54;3.63;;;3.23;;
12844;SDS011;68700;48.534;9.196;2023-08-31T03:28:16;3.47;;;2.83;;
12844;SDS011;68700;48.534;9.196;2023-08-31T03:31:38;3.27;;;2.83;;
12844;SDS011;68700;48.534;9.196;2023-08-31T03:35:01;5.63;;;3.27;;
12844;SDS011;68700;48.534;9.196;2023-08-31T03:38:24;3.77;;;3.07;;
12844;SDS011;68700;48.534;9.196;2023-08-31T03:41:47;3.57;;;3.13;;
12844;SDS011;68700;48.534;9.196;2023-08-31T03:45:09;5.10;;;3.27;;
12844;SDS011;68700;48.534;9.196;2023-08-31T03:48:31;4.87;;;3.20;;
12844;SDS011;68700;48.534;9.196;2023-08-31T03:51:53;5.23;;;3.20;;
12844;SDS011;68700;48.534;9.196;2023-08-31T03:55:15;4.73;;;2.87;;
12844;SDS011;68700;48.534;9.196;2023-08-31T03:58:38;5.37;;;3.40;;
12844;SDS011;68700;48.534;9.196;2023-08-31T04:02:00;5.40;;;3.17;;
12844;SDS011;68700;48.534;9.196;2023-08-31T04:05:22;5.67;;;3.40;;
12844;SDS011;68700;48.534;9.196;2023-08-31T04:08:44;4.60;;;3.03;;
12844;SDS011;68700;48.534;9.196;2023-08-31T04:12:06;4.27;;;3.17;;
12844;SDS011;68700;48.534;9.196;2023-08-31T04:15:29;4.07;;;3.67;;
12844;SDS011;68700;48.534;9.196;2023-08-31T04:18:51;4.00;;;3.53;;
12844;SDS011;68700;48.534;9.196;2023-08-31T04:22:13;5.73;;;3.57;;
12844;SDS011;68700;48.534;9.196;2023-08-31T04:25:35;9.10;;;4.07;;
12844;SDS011;68700;48.534;9.196;2023-08-31T04:28:58;5.07;;;3.57;;
12844;SDS011;68700;48.534;9.196;2023-08-31T04:32:21;4.13;;;3.73;;
12844;SDS011;68700;48.534;9.196;2023-08-31T04:35:43;7.43;;;3.90;;
12844;SDS011;68700;48.534;9.196;2023-08-31T04:39:05;7.27;;;4.30;;
12844;SDS011;68700;48.534;9.196;2023-08-31T04:42:27;5.83;;;3.90;;
12844;SDS011;68700;48.534;9.196;2023-08-31T04:45:51;8.53;;;3.43;;
12844;SDS011;68700;48.534;9.196;2023-08-31T04:49:14;4.20;;;3.63;;
12844;SDS011;68700;48.534;9.196;2023-08-31T04:52:36;3.80;;;3.50;;
12844;SDS011;68700;48.534;9.196;2023-08-31T04:55:57;4.47;;;4.07;;
12844;SDS011;68700;48.534;9.196;2023-08-31T04:59:19;4.10;;;3.43;;
12844;SDS011;68700;48.534;9.196;2023-08-31T05:02:41;5.20;;;4.20;;
12844;SDS011;68700;48.534;9.196;2023-08-31T05:06:04;6.30;;;4.20;;
12844;SDS011;68700;48.534;9.196;2023-08-31T05:09:28;5.20;;;3.70;;
12844;SDS011;68700;48.534;9.196;2023-08-31T05:12:52;5.80;;;4.07;;
12844;SDS011;68700;48.534;9.196;2023-08-31T05:16:14;6.83;;;4.47;;
12844;SDS011;68700;48.534;9.196;2023-08-31T05:19:36;4.40;;;4.00;;
12844;SDS011;68700;48.534;9.196;2023-08-31T05:22:59;4.93;;;4.43;;
12844;SDS011;68700;48.534;9.196;2023-08-31T05:26:21;5.00;;;3.67;;
12844;SDS011;68700;48.534;9.196;2023-08-31T05:29:42;4.67;;;3.53;;
12844;SDS011;68700;48.534;9.196;2023-08-31T05:33:06;6.47;;;4.23;;
12844;SDS011;68700;48.534;9.196;2023-08-31T05:36:28;4.53;;;3.50;;
12844;SDS011;68700;48.534;9.196;2023-08-31T05:39:52;5.67;;;3.87;;
12844;SDS011;68700;48.534;9.196;2023-08-31T05:43:13;5.40;;;3.67;;
12844;SDS011;68700;48.534;9.196;2023-08-31T05:46:35;4.20;;;3.80;;
12844;SDS011;68700;48.534;9.196;2023-08-31T05:49:58;5.07;;;3.70;;
12844;SDS011;68700;48.534;9.196;2023-08-31T05:53:20;4.93;;;4.00;;
12844;SDS011;68700;48.534;9.196;2023-08-31T05:56:43;4.17;;;3.50;;
12844;SDS011;68700;48.534;9.196;2023-08-31T06:00:06;5.67;;;3.60;;
12844;SDS011;68700;48.534;9.196;2023-08-31T06:03:29;5.17;;;3.57;;
12844;SDS011;68700;48.534;9.196;2023-08-31T06:06:51;5.10;;;3.33;;
12844;SDS011;68700;48.534;9.196;2023-08-31T06:10:14;3.97;;;3.10;;
12844;SDS011;68700;48.534;9.196;2023-08-31T06:13:37;5.83;;;3.30;;
12844;SDS011;68700;48.534;9.196;2023-08-31T06:16:59;6.77;;;3.70;;
12844;SDS011;68700;48.534;9.196;2023-08-31T06:20:21;5.57;;;3.90;;
12844;SDS011;68700;48.534;9.196;2023-08-31T06:23:43;6.13;;;3.67;;
12844;SDS011;68700;48.534;9.196;2023-08-31T06:27:05;4.87;;;3.63;;
12844;SDS011;68700;48.534;9.196;2023-08-31T06:30:28;5.93;;;3.20;;
12844;SDS011;68700;48.534;9.196;2023-08-31T06:33:50;5.07;;;3.80;;
12844;SDS011;68700;48.534;9.196;2023-08-31T06:37:12;5.10;;;3.90;;
12844;SDS011;68700;48.534;9.196;2023-08-31T06:40:34;5.93;;;2.90;;
12844;SDS011;68700;48.534;9.196;2023-08-31T06:43:55;4.80;;;3.23;;
12844;SDS011;68700;48.534;9.196;2023-08-31T06:47:19;7.27;;;3.23;;
12844;SDS011;68700;48.534;9.196;2023-08-31T06:50:41;6.80;;;3.07;;
12844;SDS011;68700;48.534;9.196;2023-08-31T06:54:03;6.07;;;3.37;;
12844;SDS011;68700;48.534;9.196;2023-08-31T06:57:26;3.23;;;2.63;;
12844;SDS011;68700;48.534;9.196;2023-08-31T07:00:48;8.83;;;3.00;;
12844;SDS011;68700;48.534;9.196;2023-08-31T07:04:12;4.67;;;3.03;;
12844;SDS011;68700;48.534;9.196;2023-08-31T07:07:33;5.47;;;2.73;;
12844;SDS011;68700;48.534;9.196;2023-08-31T07:10:55;2.93;;;2.67;;
12844;SDS011;68700;48.534;9.196;2023-08-31T07:14:17;3.57;;;2.90;;
12844;SDS011;68700;48.534;9.196;2023-08-31T07:17:41;6.03;;;2.40;;
12844;SDS011;68700;48.534;9.196;2023-08-31T07:21:04;5.37;;;2.40;;
12844;SDS011;68700;48.534;9.196;2023-08-31T07:24:26;3.50;;;2.43;;
12844;SDS011;68700;48.534;9.196;2023-08-31T07:27:49;6.17;;;2.60;;
12844;SDS011;68700;48.534;9.196;2023-08-31T07:31:11;4.40;;;2.57;;
12844;SDS011;68700;48.534;9.196;2023-08-31T07:34:33;4.33;;;2.60;;
12844;SDS011;68700;48.534;9.196;2023-08-31T07:38:06;2.90;;;2.03;;
12844;SDS011;68700;48.534;9.196;2023-08-31T07:41:28;7.33;;;2.50;;
12844;SDS011;68700;48.534;9.196;2023-08-31T07:44:50;4.13;;;2.47;;
12844;SDS011;68700;48.534;9.196;2023-08-31T07:48:12;3.37;;;2.23;;
12844;SDS011;68700;48.534;9.196;2023-08-31T07:51:34;4.57;;;2.40;;
12844;SDS011;68700;48.534;9.196;2023-08-31T07:54:59;4.10;;;2.33;;
12844;SDS011;68700;48.534;9.196;2023-08-31T07:58:23;6.30;;;2.20;;
12844;SDS011;68700;48.534;9.196;2023-08-31T08:01:46;6.53;;;2.43;;
12844;SDS011;68700;48.534;9.196;2023-08-31T08:05:08;3.50;;;2.10;;
12844;SDS011;68700;48.534;9.196;2023-08-31T08:08:30;3.03;;;2.13;;
12844;SDS011;68700;48.534;9.196;2023-08-31T08:11:53;3.97;;;2.00;;
12844;SDS011;68700;48.534;9.196;2023-08-31T08:15:15;4.87;;;2.47;;
12844;SDS011;68700;48.534;9.196;2023-08-31T08:18:37;2.17;;;1.73;;
12844;SDS011;68700;48.534;9.196;2023-08-31T08:21:59;2.93;;;2.27;;
12844;SDS011;68700;48.534;9.196;2023-08-31T08:25:21;4.87;;;2.10;;
12844;SDS011;68700;48.534;9.196;2023-08-31T08:28:44;3.07;;;1.90;;
12844;SDS011;68700;48.534;9.196;2023-08-31T08:32:07;3.87;;;1.90;;
12844;SDS011;68700;48.534;9.196;2023-08-31T08:35:29;3.67;;;2.03;;
12844;SDS011;68700;48.534;9.196;2023-08-31T08:38:51;6.23;;;1.90;;
12844;SDS011;68700;48.534;9.196;2023-08-31T08:42:12;5.83;;;2.00;;
12844;SDS011;68700;48.534;9.196;2023-08-31T08:45:37;4.70;;;2.07;;
12844;SDS011;68700;48.534;9.196;2023-08-31T08:49:01;5.03;;;2.00;;
12844;SDS011;68700;48.534;9.196;2023-08-31T08:52:25;4.93;;;2.30;;
12844;SDS011;68700;48.534;9.196;2023-08-31T08:56:06;4.77;;;2.30;;
12844;SDS011;68700;48.534;9.196;2023-08-31T08:59:28;4.00;;;2.30;;
12844;SDS011;68700;48.534;9.196;2023-08-31T09:02:52;3.47;;;1.90;;
12844;SDS011;68700;48.534;9.196;2023-08-31T09:06:14;3.03;;;2.10;;
12844;SDS011;68700;48.534;9.196;2023-08-31T09:09:47;3.43;;;2.20;;
12844;SDS011;68700;48.534;9.196;2023-08-31T09:13:10;2.43;;;1.93;;
12844;SDS011;68700;48.534;9.196;2023-08-31T09:16:33;5.00;;;2.10;;
12844;SDS011;68700;48.534;9.196;2023-08-31T09:20:00;3.27;;;2.13;;
12844;SDS011;68700;48.534;9.196;2023-08-31T09:23:23;4.63;;;1.90;;
12844;SDS011;68700;48.534;9.196;2023-08-31T09:26:47;3.17;;;1.80;;
12844;SDS011;68700;48.534;9.196;2023-08-31T09:30:09;3.27;;;1.70;;
12844;SDS011;68700;48.534;9.196;2023-08-31T09:33:32;3.73;;;2.10;;
12844;SDS011;68700;48.534;9.196;2023-08-31T09:36:57;2.53;;;1.70;;
12844;SDS011;68700;48.534;9.196;2023-08-31T09:40:25;3.10;;;1.97;;
12844;SDS011;68700;48.534;9.196;2023-08-31T09:43:47;4.93;;;2.50;;
12844;SDS011;68700;48.534;9.196;2023-08-31T09:47:09;4.33;;;2.47;;
12844;SDS011;68700;48.534;9.196;2023-08-31T09:50:31;4.70;;;2.07;;
12844;SDS011;68700;48.534;9.196;2023-08-31T09:53:55;6.47;;;2.77;;
12844;SDS011;68700;48.534;9.196;2023-08-31T09:57:20;4.33;;;2.47;;
12844;SDS011;68700;48.534;9.196;2023-08-31T10:00:43;3.63;;;2.20;;
12844;SDS011;68700;48.534;9.196;2023-08-31T10:04:05;5.00;;;2.23;;
12844;SDS011;68700;48.534;9.196;2023-08-31T10:07:28;4.53;;;2.30;;
12844;SDS011;68700;48.534;9.196;2023-08-31T10:10:52;3.23;;;2.00;;
12844;SDS011;68700;48.534;9.196;2023-08-31T10:14:15;3.70;;;2.17;;
12844;SDS011;68700;48.534;9.196;2023-08-31T10:17:40;3.87;;;2.20;;
12844;SDS011;68700;48.534;9.196;2023-08-31T10:21:03;4.50;;;2.20;;
12844;SDS011;68700;48.534;9.196;2023-08-31T10:28:19;3.93;;;2.10;;
12844;SDS011;68700;48.534;9.196;2023-08-31T10:31:42;5.27;;;2.33;;
12844;SDS011;68700;48.534;9.196;2023-08-31T10:35:11;4.80;;;2.20;;
12844;SDS011;68700;48.534;9.196;2023-08-31T10:38:32;3.07;;;1.80;;
12844;SDS011;68700;48.534;9.196;2023-08-31T10:41:55;3.63;;;2.30;;
12844;SDS011;68700;48.534;9.196;2023-08-31T10:45:20;3.90;;;2.30;;
12844;SDS011;68700;48.534;9.196;2023-08-31T10:48:49;4.13;;;2.53;;
12844;SDS011;68700;48.534;9.196;2023-08-31T10:52:15;2.73;;;2.40;;
12844;SDS011;68700;48.534;9.196;2023-08-31T10:55:49;5.00;;;2.20;;
12844;SDS011;68700;48.534;9.196;2023-08-31T10:59:11;3.73;;;2.33;;
12844;SDS011;68700;48.534;9.196;2023-08-31T11:02:36;3.90;;;2.40;;
12844;SDS011;68700;48.534;9.196;2023-08-31T11:05:59;4.17;;;2.47;;
12844;SDS011;68700;48.534;9.196;2023-08-31T11:09:21;2.87;;;2.20;;
12844;SDS011;68700;48.534;9.196;2023-08-31T11:12:44;3.53;;;2.33;;
12844;SDS011;68700;48.534;9.196;2023-08-31T11:16:06;3.53;;;2.43;;
12844;SDS011;68700;48.534;9.196;2023-08-31T11:19:30;2.87;;;2.30;;
12844;SDS011;68700;48.534;9.196;2023-08-31T11:26:55;4.00;;;2.10;;
12844;SDS011;68700;48.534;9.196;2023-08-31T11:30:17;4.13;;;2.17;;
12844;SDS011;68700;48.534;9.196;2023-08-31T11:33:40;3.63;;;2.30;;
12844;SDS011;68700;48.534;9.196;2023-08-31T11:37:04;3.43;;;2.13;;
12844;SDS011;68700;48.534;9.196;2023-08-31T11:40:26;4.07;;;2.57;;
12844;SDS011;68700;48.534;9.196;2023-08-31T11:43:48;6.10;;;2.73;;
12844;SDS011;68700;48.534;9.196;2023-08-31T11:47:11;5.20;;;3.20;;
12844;SDS011;68700;48.534;9.196;2023-08-31T11:50:34;6.43;;;4.03;;
12844;SDS011;68700;48.534;9.196;2023-08-31T11:53:58;6.90;;;3.83;;
12844;SDS011;68700;48.534;9.196;2023-08-31T11:57:20;3.10;;;2.13;;
12844;SDS011;68700;48.534;9.196;2023-08-31T12:00:54;3.10;;;2.43;;
12844;SDS011;68700;48.534;9.196;2023-08-31T12:04:16;5.90;;;2.40;;
12844;SDS011;68700;48.534;9.196;2023-08-31T12:07:42;4.10;;;2.50;;
12844;SDS011;68700;48.534;9.196;2023-08-31T12:11:07;4.30;;;2.10;;
12844;SDS011;68700;48.534;9.196;2023-08-31T12:14:29;3.67;;;2.40;;
12844;SDS011;68700;48.534;9.196;2023-08-31T12:17:51;3.87;;;2.30;;
12844;SDS011;68700;48.534;9.196;2023-08-31T12:21:14;5.57;;;2.47;;
12844;SDS011;68700;48.534;9.196;2023-08-31T12:24:39;4.57;;;2.40;;
12844;SDS011;68700;48.534;9.196;2023-08-31T12:28:03;6.50;;;2.50;;
12844;SDS011;68700;48.534;9.196;2023-08-31T12:31:25;3.57;;;2.30;;
12844;SDS011;68700;48.534;9.196;2023-08-31T12:34:47;3.90;;;2.20;;
12844;SDS011;68700;48.534;9.196;2023-08-31T12:38:09;3.53;;;2.50;;
12844;SDS011;68700;48.534;9.196;2023-08-31T12:41:31;3.77;;;2.10;;
12844;SDS011;68700;48.534;9.196;2023-08-31T12:44:54;4.30;;;2.23;;
12844;SDS011;68700;48.534;9.196;2023-08-31T12:48:16;3.00;;;2.20;;
12844;SDS011;68700;48.534;9.196;2023-08-31T12:51:38;3.50;;;2.10;;
12844;SDS011;68700;48.534;9.196;2023-08-31T12:54:59;3.00;;;1.80;;
12844;SDS011;68700;48.534;9.196;2023-08-31T12:58:21;3.37;;;2.47;;
12844;SDS011;68700;48.534;9.196;2023-08-31T13:01:45;4.10;;;2.50;;
12844;SDS011;68700;48.534;9.196;2023-08-31T13:05:07;4.40;;;2.30;;
12844;SDS011;68700;48.534;9.196;2023-08-31T13:08:30;4.93;;;2.53;;
12844;SDS011;68700;48.534;9.196;2023-08-31T13:11:51;4.00;;;2.50;;
12844;SDS011;68700;48.534;9.196;2023-08-31T13:15:13;5.53;;;2.60;;
12844;SDS011;68700;48.534;9.196;2023-08-31T13:18:37;3.23;;;2.10;;
12844;SDS011;68700;48.534;9.196;2023-08-31T13:21:58;3.63;;;2.27;;
12844;SDS011;68700;48.534;9.196;2023-08-31T13:25:20;3.57;;;2.40;;
12844;SDS011;68700;48.534;9.196;2023-08-31T13:28:42;4.30;;;2.37;;
12844;SDS011;68700;48.534;9.196;2023-08-31T13:32:04;3.90;;;2.10;;
12844;SDS011;68700;48.534;9.196;2023-08-31T13:35:28;3.40;;;2.23;;
12844;SDS011;68700;48.534;9.196;2023-08-31T13:38:50;4.90;;;2.10;;
12844;SDS011;68700;48.534;9.196;2023-08-31T13:42:12;3.77;;;2.40;;
12844;SDS011;68700;48.534;9.196;2023-08-31T13:45:34;3.23;;;2.17;;
12844;SDS011;68700;48.534;9.196;2023-08-31T13:48:55;5.33;;;2.60;;
12844;SDS011;68700;48.534;9.196;2023-08-31T13:52:19;5.27;;;2.27;;
12844;SDS011;68700;48.534;9.196;2023-08-31T13:55:41;6.27;;;2.20;;
12844;SDS011;68700;48.534;9.196;2023-08-31T13:59:03;3.83;;;2.10;;
12844;SDS011;68700;48.534;9.196;2023-08-31T14:02:25;3.73;;;2.43;;
12844;SDS011;68700;48.534;9.196;2023-08-31T14:05:47;4.13;;;2.17;;
12844;SDS011;68700;48.534;9.196;2023-08-31T14:09:11;6.53;;;2.33;;
12844;SDS011;68700;48.534;9.196;2023-08-31T14:12:33;5.00;;;2.20;;
12844;SDS011;68700;48.534;9.196;2023-08-31T14:15:55;5.60;;;2.73;;
12844;SDS011;68700;48.534;9.196;2023-08-31T14:19:18;4.00;;;2.17;;
12844;SDS011;68700;48.534;9.196;2023-08-31T14:22:40;4.43;;;2.13;;
12844;SDS011;68700;48.534;9.196;2023-08-31T14:26:04;5.03;;;2.40;;
12844;SDS011;68700;48.534;9.196;2023-08-31T14:29:26;5.07;;;2.63;;
12844;SDS011;68700;48.534;9.196;2023-08-31T14:32:48;6.10;;;2.80;;
12844;SDS011;68700;48.534;9.196;2023-08-31T14:36:10;6.20;;;2.50;;
12844;SDS011;68700;48.534;9.196;2023-08-31T14:39:32;5.77;;;2.10;;
12844;SDS011;68700;48.534;9.196;2023-08-31T14:42:55;4.73;;;2.20;;
12844;SDS011;68700;48.534;9.196;2023-08-31T14:46:17;5.80;;;2.73;;
12844;SDS011;68700;48.534;9.196;2023-08-31T14:49:39;6.27;;;2.77;;
12844;SDS011;68700;48.534;9.196;2023-08-31T14:53:01;4.03;;;2.33;;
12844;SDS011;68700;48.534;9.196;2023-08-31T14:56:23;5.97;;;2.30;;
12844;SDS011;68700;48.534;9.196;2023-08-31T14:59:46;4.90;;;2.37;;
12844;SDS011;68700;48.534;9.196;2023-08-31T15:03:11;4.10;;;2.20;;
12844;SDS011;68700;48.534;9.196;2023-08-31T15:06:33;5.10;;;2.23;;
12844;SDS011;68700;48.534;9.196;2023-08-31T15:09:55;5.30;;;2.13;;
12844;SDS011;68700;48.534;9.196;2023-08-31T15:13:17;5.47;;;2.13;;
12844;SDS011;68700;48.534;9.196;2023-08-31T15:16:41;4.60;;;2.20;;
12844;SDS011;68700;48.534;9.196;2023-08-31T15:20:03;5.57;;;2.47;;
12844;SDS011;68700;48.534;9.196;2023-08-31T15:23:28;4.53;;;2.50;;
12844;SDS011;68700;48.534;9.196;2023-08-31T15:26:50;7.30;;;2.50;;
12844;SDS011;68700;48.534;9.196;2023-08-31T15:30:12;4.77;;;2.23;;
12844;SDS011;68700;48.534;9.196;2023-08-31T15:33:36;6.63;;;2.53;;
12844;SDS011;68700;48.534;9.196;2023-08-31T15:36:58;8.10;;;2.60;;
12844;SDS011;68700;48.534;9.196;2023-08-31T15:40:20;5.00;;;2.53;;
12844;SDS011;68700;48.534;9.196;2023-08-31T15:43:42;4.53;;;2.30;;
12844;SDS011;68700;48.534;9.196;2023-08-31T15:47:04;5.97;;;2.60;;
12844;SDS011;68700;48.534;9.196;2023-08-31T15:50:27;4.70;;;2.20;;
12844;SDS011;68700;48.534;9.196;2023-08-31T15:53:50;4.37;;;2.40;;
12844;SDS011;68700;48.534;9.196;2023-08-31T15:57:12;6.37;;;2.50;;
12844;SDS011;68700;48.534;9.196;2023-08-31T16:00:34;5.03;;;2.20;;
12844;SDS011;68700;48.534;9.196;2023-08-31T16:03:56;4.17;;;2.40;;
12844;SDS011;68700;48.534;9.196;2023-08-31T16:07:20;4.73;;;2.60;;
12844;SDS011;68700;48.534;9.196;2023-08-31T16:10:42;5.13;;;2.50;;
12844;SDS011;68700;48.534;9.196;2023-08-31T16:14:04;5.67;;;2.47;;
12844;SDS011;68700;48.534;9.196;2023-08-31T16:17:26;5.00;;;2.63;;
12844;SDS011;68700;48.534;9.196;2023-08-31T16:20:48;5.57;;;2.60;;
12844;SDS011;68700;48.534;9.196;2023-08-31T16:24:11;4.37;;;2.40;;
12844;SDS011;68700;48.534;9.196;2023-08-31T16:27:33;3.97;;;2.30;;
12844;SDS011;68700;48.534;9.196;2023-08-31T16:30:55;3.73;;;2.70;;
12844;SDS011;68700;48.534;9.196;2023-08-31T16:34:17;4.93;;;2.60;;
12844;SDS011;68700;48.534;9.196;2023-08-31T16:37:39;4.53;;;2.43;;
12844;SDS011;68700;48.534;9.196;2023-08-31T16:41:04;4.30;;;2.40;;
12844;SDS011;68700;48.534;9.196;2023-08-31T16:44:26;8.10;;;2.57;;
12844;SDS011;68700;48.534;9.196;2023-08-31T16:47:48;3.77;;;2.37;;
12844;SDS011;68700;48.534;9.196;2023-08-31T16:51:10;3.20;;;2.00;;
12844;SDS011;68700;48.534;9.196;2023-08-31T16:54:32;5.37;;;2.43;;
12844;SDS011;68700;48.534;9.196;2023-08-31T16:57:55;4.90;;;2.67;;
12844;SDS011;68700;48.534;9.196;2023-08-31T17:01:18;3.37;;;2.23;;
12844;SDS011;68700;48.534;9.196;2023-08-31T17:04:40;4.77;;;2.23;;
12844;SDS011;68700;48.534;9.196;2023-08-31T17:08:02;4.27;;;2.60;;
12844;SDS011;68700;48.534;9.196;2023-08-31T17:11:24;4.87;;;2.23;;
12844;SDS011;68700;48.534;9.196;2023-08-31T17:14:48;4.90;;;2.97;;
12844;SDS011;68700;48.534;9.196;2023-08-31T17:18:10;7.43;;;2.20;;
12844;SDS011;68700;48.534;9.196;2023-08-31T17:21:32;7.30;;;2.90;;
12844;SDS011;68700;48.534;9.196;2023-08-31T17:24:54;3.00;;;2.50;;
12844;SDS011;68700;48.534;9.196;2023-08-31T17:28:17;5.13;;;2.67;;
12844;SDS011;68700;48.534;9.196;2023-08-31T17:31:41;5.37;;;2.37;;
12844;SDS011;68700;48.534;9.196;2023-08-31T17:35:04;4.27;;;2.27;;
12844;SDS011;68700;48.534;9.196;2023-08-31T17:38:26;3.93;;;2.10;;
12844;SDS011;68700;48.534;9.196;2023-08-31T17:41:48;4.40;;;2.53;;
12844;SDS011;68700;48.534;9.196;2023-08-31T17:45:10;3.07;;;2.23;;
12844;SDS011;68700;48.534;9.196;2023-08-31T17:48:33;4.33;;;2.30;;
12844;SDS011;68700;48.534;9.196;2023-08-31T17:51:56;4.67;;;2.30;;
12844;SDS011;68700;48.534;9.196;2023-08-31T17:55:18;6.07;;;2.20;;
12844;SDS011;68700;48.534;9.196;2023-08-31T17:58:39;4.33;;;2.70;;
12844;SDS011;68700;48.534;9.196;2023-08-31T18:02:01;6.37;;;2.73;;
12844;SDS011;68700;48.534;9.196;2023-08-31T18:05:25;6.33;;;2.87;;
12844;SDS011;68700;48.534;9.196;2023-08-31T18:08:47;4.90;;;2.37;;
12844;SDS011;68700;48.534;9.196;2023-08-31T18:12:09;6.50;;;2.63;;
12844;SDS011;68700;48.534;9.196;2023-08-31T18:15:31;6.17;;;2.20;;
12844;SDS011;68700;48.534;9.196;2023-08-31T18:18:52;3.70;;;2.63;;
12844;SDS011;68700;48.534;9.196;2023-08-31T18:22:15;5.50;;;2.67;;
12844;SDS011;68700;48.534;9.196;2023-08-31T18:25:37;6.20;;;2.70;;
12844;SDS011;68700;48.534;9.196;2023-08-31T18:28:59;5.40;;;2.87;;
12844;SDS011;68700;48.534;9.196;2023-08-31T18:32:21;6.17;;;2.70;;
12844;SDS011;68700;48.534;9.196;2023-08-31T18:35:47;4.87;;;2.57;;
12844;SDS011;68700;48.534;9.196;2023-08-31T18:39:11;5.40;;;2.57;;
12844;SDS011;68700;48.534;9.196;2023-08-31T18:42:32;5.70;;;2.73;;
12844;SDS011;68700;48.534;9.196;2023-08-31T18:45:59;5.43;;;2.53;;
12844;SDS011;68700;48.534;9.196;2023-08-31T18:49:21;5.93;;;2.80;;
12844;SDS011;68700;48.534;9.196;2023-08-31T18:52:42;7.23;;;2.73;;
12844;SDS011;68700;48.534;9.196;2023-08-31T18:56:06;6.53;;;3.20;;
12844;SDS011;68700;48.534;9.196;2023-08-31T18:59:28;6.07;;;3.00;;
12844;SDS011;68700;48.534;9.196;2023-08-31T19:02:49;3.93;;;2.47;;
12844;SDS011;68700;48.534;9.196;2023-08-31T19:06:11;3.77;;;2.83;;
12844;SDS011;68700;48.534;9.196;2023-08-31T19:09:33;7.90;;;3.93;;
12844;SDS011;68700;48.534;9.196;2023-08-31T19:12:56;6.43;;;3.67;;
12844;SDS011;68700;48.534;9.196;2023-08-31T19:16:19;6.53;;;3.40;;
12844;SDS011;68700;48.534;9.196;2023-08-31T19:19:41;4.33;;;3.40;;
12844;SDS011;68700;48.534;9.196;2023-08-31T19:23:03;6.50;;;3.43;;
12844;SDS011;68700;48.534;9.196;2023-08-31T19:26:25;5.53;;;3.20;;
12844;SDS011;68700;48.534;9.196;2023-08-31T19:29:48;8.87;;;3.10;;
12844;SDS011;68700;48.534;9.196;2023-08-31T19:33:10;4.53;;;2.97;;
12844;SDS011;68700;48.534;9.196;2023-08-31T19:36:32;4.70;;;3.10;;
12844;SDS011;68700;48.534;9.196;2023-08-31T19:39:54;5.83;;;3.23;;
12844;SDS011;68700;48.534;9.196;2023-08-31T19:43:16;4.03;;;3.20;;
12844;SDS011;68700;48.534;9.196;2023-08-31T19:46:40;4.87;;;3.23;;
12844;SDS011;68700;48.534;9.196;2023-08-31T19:50:02;9.03;;;3.23;;
12844;SDS011;68700;48.534;9.196;2023-08-31T19:53:24;6.50;;;3.10;;
12844;SDS011;68700;48.534;9.196;2023-08-31T19:56:46;4.97;;;3.30;;
12844;SDS011;68700;48.534;9.196;2023-08-31T20:00:09;6.77;;;3.10;;
12844;SDS011;68700;48.534;9.196;2023-08-31T20:03:33;5.17;;;3.20;;
12844;SDS011;68700;48.534;9.196;2023-08-31T20:06:57;6.30;;;3.13;;
12844;SDS011;68700;48.534;9.196;2023-08-31T20:10:19;5.80;;;3.20;;
12844;SDS011;68700;48.534;9.196;2023-08-31T20:13:42;5.50;;;2.80;;
12844;SDS011;68700;48.534;9.196;2023-08-31T20:17:04;5.40;;;3.13;;
12844;SDS011;68700;48.534;9.196;2023-08-31T20:20:27;4.83;;;3.60;;
12844;SDS011;68700;48.534;9.196;2023-08-31T20:23:49;5.07;;;3.10;;
12844;SDS011;68700;48.534;9.196;2023-08-31T20:27:11;6.43;;;3.30;;
12844;SDS011;68700;48.534;9.196;2023-08-31T20:30:33;5.37;;;3.10;;